createdAt,value
2019-06-25T00:02:32.377Z,25.49
2019-06-25T00:05:37.285Z,25.37
2019-06-25T00:08:42.336Z,25.32
2019-06-25T00:11:47.215Z,25.31
2019-06-25T00:14:52.373Z,25.32
2019-06-25T00:17:57.371Z,25.35
2019-06-25T00:21:02.440Z,25.30
2019-06-25T00:24:07.178Z,25.25
2019-06-25T00:27:12.526Z,25.19
2019-06-25T00:30:17.489Z,25.21
2019-06-25T00:33:22.895Z,25.13
2019-06-25T00:36:27.967Z,25.06
2019-06-25T00:39:32.779Z,25.04
2019-06-25T00:42:38.220Z,25.04
2019-06-25T00:45:43.504Z,25.06
2019-06-25T00:48:48.606Z,24.98
2019-06-25T00:51:53.848Z,24.96
2019-06-25T00:54:58.928Z,24.92
2019-06-25T00:58:04.142Z,24.87
2019-06-25T01:01:08.887Z,24.80
2019-06-25T01:04:13.613Z,24.74
2019-06-25T01:07:18.432Z,24.73
2019-06-25T01:10:23.317Z,24.64
2019-06-25T01:13:28.130Z,24.56
2019-06-25T01:16:33.240Z,24.54
2019-06-25T01:19:37.997Z,24.52
2019-06-25T01:22:43.065Z,24.53
2019-06-25T01:25:48.367Z,24.54
2019-06-25T01:28:53.705Z,24.47
2019-06-25T01:31:59.068Z,24.47
2019-06-25T01:35:03.909Z,24.40
2019-06-25T01:38:08.732Z,24.33
2019-06-25T01:41:13.529Z,24.24
2019-06-25T01:44:19.185Z,24.23
2019-06-25T01:47:24.220Z,24.19
2019-06-25T01:50:29.255Z,24.16
2019-06-25T01:53:34.470Z,24.13
2019-06-25T01:56:39.519Z,24.05
2019-06-25T01:59:46.025Z,24.01
2019-06-25T02:02:50.854Z,24.03
2019-06-25T02:05:55.659Z,24.01
2019-06-25T02:09:00.705Z,23.94
2019-06-25T02:12:08.122Z,23.88
2019-06-25T02:15:13.507Z,23.82
2019-06-25T02:18:18.302Z,23.78
2019-06-25T02:21:23.375Z,23.86
2019-06-25T02:24:28.521Z,23.82
2019-06-25T02:27:33.618Z,23.82
2019-06-25T02:30:38.492Z,23.75
2019-06-25T02:33:43.714Z,23.70
2019-06-25T02:36:48.560Z,23.62
2019-06-25T02:39:53.626Z,23.59
2019-06-25T02:42:58.490Z,23.47
2019-06-25T02:46:03.494Z,23.47
2019-06-25T02:49:09.459Z,23.46
2019-06-25T02:52:14.249Z,23.43
2019-06-25T02:55:19.707Z,23.50
2019-06-25T02:58:24.552Z,23.51
2019-06-25T03:01:30.217Z,23.53
2019-06-25T03:04:35.477Z,23.48
2019-06-25T03:07:41.471Z,23.45
2019-06-25T03:10:46.262Z,23.39
2019-06-25T03:13:51.638Z,23.43
2019-06-25T03:16:56.725Z,23.41
2019-06-25T03:20:01.539Z,23.40
2019-06-25T03:23:06.880Z,23.36
2019-06-25T03:26:11.666Z,23.35
2019-06-25T03:29:16.432Z,23.28
2019-06-25T03:32:21.163Z,23.27
2019-06-25T03:35:26.571Z,23.21
2019-06-25T03:38:31.959Z,23.19
2019-06-25T03:41:36.731Z,23.16
2019-06-25T03:44:41.849Z,23.20
2019-06-25T03:47:47.292Z,23.27
2019-06-25T03:50:52.043Z,23.23
2019-06-25T03:53:57.363Z,23.21
2019-06-25T03:57:02.112Z,23.27
2019-06-25T04:00:07.774Z,23.28
2019-06-25T04:03:13.606Z,23.26
2019-06-25T04:06:18.499Z,23.29
2019-06-25T04:09:23.749Z,23.33
2019-06-25T04:12:29.388Z,23.41
2019-06-25T04:15:34.179Z,23.41
2019-06-25T04:18:38.943Z,23.46
2019-06-25T04:21:43.724Z,23.48
2019-06-25T04:24:48.471Z,23.49
2019-06-25T04:27:53.553Z,23.48
2019-06-25T04:30:58.623Z,23.52
2019-06-25T04:34:03.624Z,23.56
2019-06-25T04:37:08.331Z,23.53
2019-06-25T04:40:13.976Z,23.60
2019-06-25T04:43:20.080Z,23.59
2019-06-25T04:46:24.910Z,23.56
2019-06-25T04:49:29.739Z,23.55
2019-06-25T04:52:34.823Z,23.63
2019-06-25T04:55:39.699Z,23.71
2019-06-25T04:58:44.430Z,23.60
2019-06-25T05:01:49.379Z,23.58
2019-06-25T05:04:55.095Z,23.58
2019-06-25T05:08:01.003Z,23.59
2019-06-25T05:11:06.372Z,23.65
2019-06-25T05:14:12.162Z,23.72
2019-06-25T05:17:17.711Z,23.73
2019-06-25T05:20:22.619Z,23.74
2019-06-25T05:23:29.516Z,23.73
2019-06-25T05:26:35.061Z,23.77
2019-06-25T05:29:39.918Z,23.75
2019-06-25T05:32:45.405Z,23.74
2019-06-25T05:36:02.651Z,23.80
2019-06-25T05:39:09.736Z,23.86
2019-06-25T05:42:14.671Z,23.97
2019-06-25T05:45:20.445Z,23.97
2019-06-25T05:48:27.831Z,24.06
2019-06-25T05:51:32.543Z,24.05
2019-06-25T05:54:38.202Z,24.15
2019-06-25T05:57:43.076Z,24.22
2019-06-25T06:00:48.072Z,24.23
2019-06-25T06:03:53.075Z,24.25
2019-06-25T06:06:57.877Z,24.33
2019-06-25T06:10:03.737Z,24.31
2019-06-25T06:13:08.873Z,24.33
2019-06-25T06:16:13.746Z,24.27
2019-06-25T06:19:18.470Z,24.28
2019-06-25T06:22:23.665Z,24.27
2019-06-25T06:25:28.412Z,24.32
2019-06-25T06:28:33.509Z,24.38
2019-06-25T06:31:38.421Z,24.46
2019-06-25T06:34:43.381Z,24.52
2019-06-25T06:37:48.295Z,24.73
2019-06-25T06:40:53.262Z,24.87
2019-06-25T06:43:58.423Z,25.03
2019-06-25T06:47:03.739Z,25.11
2019-06-25T06:50:09.185Z,25.18
2019-06-25T06:53:15.072Z,25.36
2019-06-25T06:56:19.989Z,25.51
2019-06-25T06:59:25.315Z,25.58
2019-06-25T07:02:30.294Z,25.66
2019-06-25T07:05:35.229Z,25.69
2019-06-25T07:08:40.370Z,25.93
2019-06-25T07:11:46.547Z,25.95
2019-06-25T07:14:52.271Z,26.04
2019-06-25T07:17:57.260Z,26.12
2019-06-25T07:21:02.643Z,26.18
2019-06-25T07:24:07.465Z,26.21
2019-06-25T07:27:12.311Z,26.30
2019-06-25T07:30:19.193Z,26.28
2019-06-25T07:33:24.819Z,26.36
2019-06-25T07:36:30.081Z,26.52
2019-06-25T07:39:35.538Z,26.55
2019-06-25T07:42:41.552Z,26.65
2019-06-25T07:45:47.606Z,26.80
2019-06-25T07:48:53.668Z,26.81
2019-06-25T07:51:58.768Z,27.00
2019-06-25T07:55:03.860Z,27.10
2019-06-25T07:58:09.026Z,27.12
2019-06-25T08:01:14.758Z,27.27
2019-06-25T08:04:25.517Z,27.43
2019-06-25T08:07:27.248Z,27.56
2019-06-25T08:10:32.351Z,27.70
2019-06-25T08:13:37.388Z,27.77
2019-06-25T08:16:42.299Z,27.85
2019-06-25T08:19:47.047Z,27.90
2019-06-25T08:22:53.551Z,28.09
2019-06-25T08:25:58.567Z,28.21
2019-06-25T08:29:03.718Z,28.16
2019-06-25T08:32:09.253Z,28.36
2019-06-25T08:35:14.433Z,28.37
2019-06-25T08:38:19.299Z,28.27
2019-06-25T08:41:24.512Z,28.39
2019-06-25T08:44:29.440Z,28.49
2019-06-25T08:47:34.760Z,28.73
2019-06-25T08:50:39.742Z,28.91
2019-06-25T08:53:44.636Z,29.03
2019-06-25T08:56:49.694Z,29.25
2019-06-25T08:59:54.790Z,29.44
2019-06-25T09:02:59.875Z,29.51
2019-06-25T09:06:04.969Z,29.65
2019-06-25T09:09:09.759Z,29.77
2019-06-25T09:12:14.721Z,29.77
2019-06-25T09:15:20.007Z,29.65
2019-06-25T09:18:25.344Z,29.72
2019-06-25T09:21:30.685Z,29.78
2019-06-25T09:24:35.607Z,29.95
2019-06-25T09:27:40.464Z,29.87
2019-06-25T09:30:45.288Z,29.85
2019-06-25T09:33:50.207Z,29.93
2019-06-25T09:36:55.883Z,30.01
2019-06-25T09:39:59.314Z,30.16
2019-06-25T09:43:02.952Z,30.15
2019-06-25T09:46:07.903Z,30.48
2019-06-25T09:49:13.447Z,30.45
2019-06-25T09:52:18.717Z,30.31
2019-06-25T09:55:23.468Z,30.34
2019-06-25T09:58:29.540Z,30.53
2019-06-25T10:01:44.812Z,30.71
2019-06-25T10:04:42.032Z,30.70
2019-06-25T10:07:47.272Z,30.73
2019-06-25T10:10:52.382Z,30.95
2019-06-25T10:13:57.505Z,31.08
2019-06-25T10:17:03.326Z,31.24
2019-06-25T10:20:08.489Z,31.39
2019-06-25T10:23:13.564Z,31.38
2019-06-25T10:26:18.370Z,31.58
2019-06-25T10:29:23.437Z,31.77
2019-06-25T10:32:28.158Z,31.68
2019-06-25T10:35:46.609Z,31.71
2019-06-25T10:38:39.928Z,31.68
2019-06-25T10:41:44.933Z,31.79
2019-06-25T10:44:49.712Z,31.69
2019-06-25T10:47:54.806Z,31.86
2019-06-25T10:51:00.156Z,32.03
2019-06-25T10:54:05.390Z,32.20
2019-06-25T10:57:11.193Z,32.39
2019-06-25T11:00:19.813Z,32.45
2019-06-25T11:03:24.739Z,32.47
2019-06-25T11:06:29.578Z,32.56
2019-06-25T11:09:35.713Z,32.56
2019-06-25T11:12:40.947Z,32.66
2019-06-25T11:15:46.189Z,32.69
2019-06-25T11:18:51.645Z,32.54
2019-06-25T11:21:56.707Z,32.62
2019-06-25T11:25:02.372Z,32.97
2019-06-25T11:28:07.325Z,33.23
2019-06-25T11:31:12.712Z,33.42
2019-06-25T11:34:17.987Z,33.25
2019-06-25T11:37:22.733Z,33.03
2019-06-25T11:40:34.548Z,33.14
2019-06-25T11:43:44.240Z,32.75
2019-06-25T11:46:46.603Z,32.95
2019-06-25T11:49:51.426Z,33.13
2019-06-25T11:52:56.271Z,33.02
2019-06-25T11:56:01.109Z,33.24
2019-06-25T11:59:06.108Z,33.61
2019-06-25T12:02:11.031Z,33.74
2019-06-25T12:05:16.159Z,33.89
2019-06-25T12:08:20.891Z,34.09
2019-06-25T12:11:25.679Z,33.82
2019-06-25T12:14:30.442Z,34.03
2019-06-25T12:17:35.902Z,34.30
2019-06-25T12:20:41.229Z,34.42
2019-06-25T12:23:46.322Z,34.49
2019-06-25T12:26:51.107Z,34.55
2019-06-25T12:29:56.240Z,34.45
2019-06-25T12:33:01.352Z,34.40
2019-06-25T12:36:06.711Z,34.51
2019-06-25T12:39:11.849Z,34.65
2019-06-25T12:42:16.917Z,34.96
2019-06-25T12:45:21.781Z,35.12
2019-06-25T12:48:27.179Z,35.08
2019-06-25T12:51:32.096Z,34.94
2019-06-25T12:54:37.042Z,34.71
2019-06-25T12:57:42.037Z,34.67
2019-06-25T13:00:47.135Z,34.86
2019-06-25T13:03:51.915Z,35.14
2019-06-25T13:06:57.068Z,35.37
2019-06-25T13:10:03.655Z,35.21
2019-06-25T13:13:08.462Z,35.19
2019-06-25T13:16:13.276Z,35.18
2019-06-25T13:19:18.050Z,35.35
2019-06-25T13:22:22.792Z,35.37
2019-06-25T13:25:27.769Z,35.53
2019-06-25T13:28:32.747Z,35.56
2019-06-25T13:31:37.878Z,35.58
2019-06-25T13:34:43.184Z,35.50
2019-06-25T13:37:50.342Z,35.37
2019-06-25T13:40:54.647Z,35.43
2019-06-25T13:43:59.529Z,35.66
2019-06-25T13:47:04.482Z,35.34
2019-06-25T13:50:09.695Z,35.43
2019-06-25T13:53:15.013Z,35.41
2019-06-25T13:56:20.155Z,35.59
2019-06-25T13:59:25.076Z,35.47
2019-06-25T14:02:30.207Z,35.56
2019-06-25T14:05:35.067Z,35.84
2019-06-25T14:08:40.316Z,35.97
2019-06-25T14:11:45.296Z,36.19
2019-06-25T14:14:51.157Z,36.49
2019-06-25T14:17:56.098Z,36.64
2019-06-25T14:21:00.885Z,36.38
2019-06-25T14:24:07.263Z,36.51
2019-06-25T14:27:13.217Z,36.50
2019-06-25T14:30:19.180Z,36.88
2019-06-25T14:33:24.035Z,36.76
2019-06-25T14:36:29.383Z,36.84
2019-06-25T14:39:34.967Z,36.50
2019-06-25T14:42:39.807Z,36.74
2019-06-25T14:45:44.785Z,36.50
2019-06-25T14:48:49.560Z,36.44
2019-06-25T14:51:54.754Z,36.69
2019-06-25T14:54:59.483Z,36.74
2019-06-25T14:58:04.323Z,36.53
2019-06-25T15:01:09.275Z,36.69
2019-06-25T15:04:14.097Z,36.77
2019-06-25T15:07:18.948Z,36.99
2019-06-25T15:10:23.878Z,37.03
2019-06-25T15:13:29.137Z,37.05
2019-06-25T15:16:34.133Z,37.12
2019-06-25T15:19:39.357Z,36.97
2019-06-25T15:22:45.087Z,37.10
2019-06-25T15:25:50.842Z,37.19
2019-06-25T15:28:55.873Z,37.05
2019-06-25T15:32:01.605Z,37.07
2019-06-25T15:35:07.226Z,37.09
2019-06-25T15:38:12.835Z,36.72
2019-06-25T15:41:18.277Z,36.84
2019-06-25T15:44:23.325Z,37.19
2019-06-25T15:47:28.206Z,36.77
2019-06-25T15:50:33.052Z,36.94
2019-06-25T15:53:37.971Z,37.05
2019-06-25T15:56:42.791Z,37.15
2019-06-25T15:59:47.835Z,37.04
2019-06-25T16:02:52.602Z,36.89
2019-06-25T16:05:57.406Z,37.10
2019-06-25T16:09:03.692Z,37.20
2019-06-25T16:12:10.509Z,36.83
2019-06-25T16:15:15.666Z,36.51
2019-06-25T16:18:20.552Z,36.72
2019-06-25T16:21:25.390Z,36.87
2019-06-25T16:24:30.454Z,36.68
2019-06-25T16:27:35.966Z,36.64
2019-06-25T16:30:41.441Z,36.50
2019-06-25T16:33:46.200Z,36.38
2019-06-25T16:36:50.937Z,36.26
2019-06-25T16:39:56.267Z,36.21
2019-06-25T16:43:01.002Z,36.08
2019-06-25T16:46:06.065Z,36.17
2019-06-25T16:49:10.779Z,36.19
2019-06-25T16:52:15.528Z,36.17
2019-06-25T16:55:20.303Z,36.44
2019-06-25T16:58:25.286Z,36.56
2019-06-25T17:01:31.086Z,36.61
2019-06-25T17:04:35.820Z,36.55
2019-06-25T17:07:40.594Z,36.42
2019-06-25T17:10:46.129Z,36.30
2019-06-25T17:13:50.874Z,35.89
2019-06-25T17:16:55.941Z,35.70
2019-06-25T17:20:00.699Z,35.30
2019-06-25T17:23:08.335Z,35.01
2019-06-25T17:26:12.584Z,35.04
2019-06-25T17:29:18.267Z,35.03
2019-06-25T17:32:23.046Z,34.87
2019-06-25T17:35:29.202Z,34.83
2019-06-25T17:38:33.983Z,34.81
2019-06-25T17:41:38.796Z,34.74
2019-06-25T17:44:43.904Z,34.72
2019-06-25T17:47:48.948Z,34.73
2019-06-25T17:50:54.203Z,34.76
2019-06-25T17:53:59.013Z,34.79
2019-06-25T17:57:03.894Z,34.71
2019-06-25T18:00:09.208Z,34.62
2019-06-25T18:03:14.144Z,34.51
2019-06-25T18:06:18.899Z,34.41
2019-06-25T18:09:36.184Z,34.30
2019-06-25T18:12:30.090Z,34.16
2019-06-25T18:15:34.899Z,34.08
2019-06-25T18:18:39.779Z,33.89
2019-06-25T18:21:44.851Z,33.78
2019-06-25T18:24:50.307Z,33.61
2019-06-25T18:27:55.048Z,33.66
2019-06-25T18:30:59.825Z,33.73
2019-06-25T18:34:04.646Z,33.72
2019-06-25T18:37:09.445Z,33.72
2019-06-25T18:40:23.642Z,33.74
2019-06-25T18:43:21.436Z,33.64
2019-06-25T18:46:27.682Z,33.56
2019-06-25T18:49:32.803Z,33.46
2019-06-25T18:52:37.721Z,33.38
2019-06-25T18:55:42.521Z,33.32
2019-06-25T18:58:47.289Z,33.18
2019-06-25T19:01:52.367Z,33.04
2019-06-25T19:04:57.449Z,32.97
2019-06-25T19:08:02.658Z,32.95
2019-06-25T19:11:07.801Z,32.87
2019-06-25T19:14:12.537Z,32.83
2019-06-25T19:17:17.332Z,32.82
2019-06-25T19:20:22.113Z,32.74
2019-06-25T19:23:27.306Z,32.62
2019-06-25T19:26:33.083Z,32.48
2019-06-25T19:29:39.224Z,32.38
2019-06-25T19:32:44.004Z,32.35
2019-06-25T19:36:04.186Z,32.29
2019-06-25T19:38:56.336Z,32.27
2019-06-25T19:42:02.139Z,32.16
2019-06-25T19:45:07.426Z,32.10
2019-06-25T19:48:12.444Z,31.94
2019-06-25T19:51:17.187Z,31.89
2019-06-25T19:54:22.201Z,31.83
2019-06-25T19:57:27.288Z,31.73
2019-06-25T20:00:32.716Z,31.57
2019-06-25T20:03:37.842Z,31.51
2019-06-25T20:06:42.552Z,31.36
2019-06-25T20:09:47.442Z,31.32
2019-06-25T20:12:52.250Z,31.14
2019-06-25T20:15:57.133Z,31.05
2019-06-25T20:19:01.903Z,30.98
2019-06-25T20:22:06.924Z,30.93
2019-06-25T20:25:11.970Z,30.89
2019-06-25T20:28:17.111Z,30.78
2019-06-25T20:31:22.087Z,30.63
2019-06-25T20:34:27.188Z,30.51
2019-06-25T20:37:32.135Z,30.41
2019-06-25T20:40:36.953Z,30.29
2019-06-25T20:43:41.989Z,30.20
2019-06-25T20:46:46.959Z,30.11
2019-06-25T20:49:51.977Z,30.11
2019-06-25T20:52:57.029Z,30.10
2019-06-25T20:56:02.123Z,30.09
2019-06-25T20:59:07.233Z,29.91
2019-06-25T21:02:12.002Z,29.68
2019-06-25T21:05:17.062Z,29.46
2019-06-25T21:08:21.938Z,29.39
2019-06-25T21:11:31.182Z,29.39
2019-06-25T21:14:33.395Z,29.25
2019-06-25T21:17:38.316Z,29.20
2019-06-25T21:20:43.462Z,29.13
2019-06-25T21:23:55.494Z,29.05
2019-06-25T21:26:56.133Z,29.02
2019-06-25T21:30:00.852Z,28.97
2019-06-25T21:33:05.868Z,28.96
2019-06-25T21:36:10.903Z,28.86
2019-06-25T21:39:15.903Z,28.86
2019-06-25T21:42:21.012Z,28.78
2019-06-25T21:45:25.944Z,28.65
2019-06-25T21:48:30.706Z,28.43
2019-06-25T21:51:35.579Z,28.19
2019-06-25T21:54:40.364Z,28.20
2019-06-25T21:57:45.680Z,28.23
2019-06-25T22:00:51.978Z,28.25
2019-06-25T22:03:59.098Z,28.24
2019-06-25T22:07:04.145Z,28.25
2019-06-25T22:10:09.279Z,28.21
2019-06-25T22:13:15.120Z,28.14
2019-06-25T22:16:20.099Z,28.14
2019-06-25T22:19:24.848Z,28.17
2019-06-25T22:22:29.950Z,28.11
2019-06-25T22:25:34.687Z,28.03
2019-06-25T22:28:39.455Z,27.90
2019-06-25T22:31:45.892Z,27.88
2019-06-25T22:34:53.300Z,27.83
2019-06-25T22:37:58.082Z,27.72
2019-06-25T22:41:03.151Z,27.71
2019-06-25T22:44:08.221Z,27.71
2019-06-25T22:47:12.962Z,27.65
2019-06-25T22:50:18.280Z,27.62
2019-06-25T22:53:23.415Z,27.59
2019-06-25T22:56:28.453Z,27.48
2019-06-25T22:59:33.913Z,27.47
2019-06-25T23:02:38.794Z,27.50
2019-06-25T23:05:43.863Z,27.44
2019-06-25T23:08:48.585Z,27.45
2019-06-25T23:11:53.538Z,27.39
2019-06-25T23:14:58.480Z,27.38
2019-06-25T23:18:03.464Z,27.36
2019-06-25T23:21:08.189Z,27.30
2019-06-25T23:24:12.983Z,27.21
2019-06-25T23:27:18.169Z,27.19
2019-06-25T23:30:23.256Z,27.18
2019-06-25T23:33:28.213Z,27.13
2019-06-25T23:36:33.200Z,27.20
2019-06-25T23:39:38.269Z,27.16
2019-06-25T23:42:43.529Z,27.11
2019-06-25T23:45:48.667Z,27.10
2019-06-25T23:48:54.004Z,27.03
2019-06-25T23:51:58.925Z,26.98
2019-06-25T23:55:04.186Z,26.90
2019-06-25T23:58:08.940Z,26.85
